createdAt,value
2018-09-19T10:12:31.583Z,101514.77
2018-09-19T10:14:59.770Z,101515.03
2018-09-19T10:17:27.815Z,101517.79
2018-09-19T10:19:55.892Z,101508.27
2018-09-19T10:22:23.935Z,101515.67
2018-09-19T10:24:52.029Z,101514.87
2018-09-19T10:27:20.080Z,101517.75
2018-09-19T10:29:48.216Z,101521.19
2018-09-19T10:32:16.284Z,101520.72
2018-09-19T10:34:44.342Z,101522.32
2018-09-19T10:37:12.391Z,101518.16
2018-09-19T10:39:40.482Z,101521.66
2018-09-19T10:42:09.068Z,101515.33
2018-09-19T10:44:37.149Z,101500.97
2018-09-19T10:47:05.224Z,101480.36
2018-09-19T10:49:33.320Z,101475.14
2018-09-19T10:52:01.355Z,101470.74
2018-09-19T10:54:29.442Z,101469.11
2018-09-19T10:56:57.653Z,101449.36
2018-09-19T10:59:25.665Z,101452.97
2018-09-19T11:01:53.740Z,101452.34
2018-09-19T11:04:21.833Z,101465.41
2018-09-19T11:06:49.918Z,101467.05
2018-09-19T11:09:18.016Z,101476.91
2018-09-19T11:11:46.092Z,101468.95
2018-09-19T11:14:14.167Z,101468.61
2018-09-19T11:16:42.236Z,101465.97
2018-09-19T11:19:10.304Z,101468.82
2018-09-19T11:21:38.402Z,101471.91
2018-09-19T11:24:06.986Z,101466.77
2018-09-19T11:26:35.140Z,101463.92
2018-09-19T11:29:03.121Z,101463.58
2018-09-19T11:31:31.212Z,101465.88
2018-09-19T11:33:59.282Z,101457.44
2018-09-19T11:36:27.395Z,101461.70
2018-09-19T11:38:55.468Z,101457.00
2018-09-19T11:41:23.594Z,101458.06
2018-09-19T11:43:51.688Z,101442.87
2018-09-19T11:46:19.731Z,101433.09
2018-09-19T11:48:47.801Z,101428.62
2018-09-19T11:51:15.852Z,101428.11
2018-09-19T11:53:43.958Z,101423.08
2018-09-19T11:56:11.999Z,101400.30
2018-09-19T11:58:40.126Z,101400.35
2018-09-19T12:01:08.178Z,101403.11
2018-09-19T12:03:36.248Z,101393.37
2018-09-19T12:06:04.324Z,101393.68
2018-09-19T12:08:32.416Z,101392.56
2018-09-19T12:11:00.566Z,101394.84
2018-09-19T12:13:28.639Z,101390.28
2018-09-19T12:15:56.771Z,101391.20
2018-09-19T12:18:24.853Z,101392.19
2018-09-19T12:20:52.919Z,101385.00
2018-09-19T12:23:20.995Z,101373.70
2018-09-19T12:25:49.041Z,101372.33
2018-09-19T12:28:17.103Z,101360.95
2018-09-19T12:30:45.234Z,101359.42
2018-09-19T12:33:13.350Z,101360.38
2018-09-19T12:35:42.522Z,101372.31
2018-09-19T12:38:10.720Z,101369.27
2018-09-19T12:40:38.773Z,101365.63
2018-09-19T12:43:06.910Z,101361.52
2018-09-19T12:45:35.010Z,101365.55
2018-09-19T12:48:03.171Z,101363.92
2018-09-19T12:50:31.280Z,101367.12
2018-09-19T12:52:59.455Z,101361.70
2018-09-19T12:55:27.540Z,101363.31
2018-09-19T12:57:55.704Z,101361.20
2018-09-19T13:00:23.768Z,101361.98
2018-09-19T13:02:51.869Z,101366.16
2018-09-19T13:05:19.986Z,101356.44
2018-09-19T13:07:48.064Z,101361.55
2018-09-19T13:10:16.171Z,101352.64
2018-09-19T13:12:44.240Z,101352.30
2018-09-19T13:15:12.363Z,101354.05
2018-09-19T13:17:40.439Z,101348.33
2018-09-19T13:20:08.487Z,101348.48
2018-09-19T13:22:36.587Z,101342.56
2018-09-19T13:25:04.677Z,101344.64
2018-09-19T13:27:32.805Z,101337.81
2018-09-19T13:30:00.848Z,101336.36
2018-09-19T13:32:28.904Z,101333.41
2018-09-19T13:34:56.973Z,101339.56
2018-09-19T13:37:25.035Z,101339.20
2018-09-19T13:39:53.101Z,101336.82
2018-09-19T13:42:21.167Z,101323.81
2018-09-19T13:44:49.233Z,101320.48
2018-09-19T13:47:17.296Z,101317.16
2018-09-19T13:49:49.056Z,101305.86
2018-09-19T13:52:17.207Z,101311.41
2018-09-19T13:54:46.323Z,101309.82
2018-09-19T13:57:14.388Z,101320.32
2018-09-19T13:59:42.464Z,101312.34
2018-09-19T14:02:10.571Z,101311.80
2018-09-19T14:04:38.629Z,101302.22
2018-09-19T14:07:07.148Z,101304.16
2018-09-19T14:09:35.229Z,101303.98
2018-09-19T14:12:03.335Z,101297.80
2018-09-19T14:14:31.404Z,101301.77
2018-09-19T14:16:59.492Z,101292.20
2018-09-19T14:19:27.544Z,101287.38
2018-09-19T14:21:55.737Z,101295.01
2018-09-19T14:24:23.764Z,101294.87
2018-09-19T14:26:51.811Z,101290.62
2018-09-19T14:29:19.876Z,101286.51
2018-09-19T14:31:47.971Z,101303.73
2018-09-19T14:34:16.011Z,101291.69
2018-09-19T14:36:44.085Z,101286.11
2018-09-19T14:39:12.196Z,101283.22
2018-09-19T14:41:40.308Z,101282.94
2018-09-19T14:44:08.368Z,101276.81
2018-09-19T14:46:36.456Z,101273.97
2018-09-19T14:49:04.565Z,101275.44
2018-09-19T14:51:32.616Z,101264.98
2018-09-19T14:54:00.712Z,101264.93
2018-09-19T14:56:28.776Z,101265.20
2018-09-19T14:58:56.872Z,101262.44
2018-09-19T15:01:24.928Z,101268.13
2018-09-19T15:03:52.985Z,101259.84
2018-09-19T15:06:21.083Z,101257.33
2018-09-19T15:08:49.132Z,101251.57
2018-09-19T15:11:17.195Z,101250.91
2018-09-19T15:13:45.261Z,101235.59
2018-09-19T15:16:13.340Z,101233.64
2018-09-19T15:18:41.428Z,101228.65
2018-09-19T15:21:09.504Z,101228.80
2018-09-19T15:23:37.551Z,101233.44
2018-09-19T15:26:05.618Z,101228.48
2018-09-19T15:28:33.960Z,101225.19
2018-09-19T15:31:01.957Z,101219.53
2018-09-19T15:33:30.012Z,101221.00
2018-09-19T15:35:58.078Z,101213.92
2018-09-19T15:38:26.216Z,101219.81
2018-09-19T15:40:54.216Z,101213.96
2018-09-19T15:43:22.311Z,101218.24
2018-09-19T15:45:50.364Z,101214.09
2018-09-19T15:48:18.457Z,101214.47
2018-09-19T15:50:46.528Z,101217.27
2018-09-19T15:53:14.576Z,101215.50
2018-09-19T15:55:42.694Z,101214.09
2018-09-19T15:58:10.744Z,101216.78
2018-09-19T16:00:38.787Z,101220.34
2018-09-19T16:03:06.861Z,101218.06
2018-09-19T16:05:34.911Z,101219.91
2018-09-19T16:08:02.960Z,101216.29
2018-09-19T16:10:31.250Z,101219.63
2018-09-19T16:12:59.358Z,101218.67
2018-09-19T16:15:27.464Z,101215.47
2018-09-19T16:17:55.573Z,101219.84
2018-09-19T16:20:23.770Z,101225.80
2018-09-19T16:22:51.896Z,101222.70
2018-09-19T16:25:19.948Z,101220.28
2018-09-19T16:27:48.085Z,101227.23
2018-09-19T16:30:16.138Z,101225.81
2018-09-19T16:32:44.200Z,101234.80
2018-09-19T16:35:12.264Z,101238.52
2018-09-19T16:37:40.324Z,101242.53
2018-09-19T16:40:08.365Z,101243.50
2018-09-19T16:42:36.437Z,101245.64
2018-09-19T16:45:04.759Z,101248.58
2018-09-19T16:47:32.825Z,101254.17
2018-09-19T16:50:00.892Z,101254.88
2018-09-19T16:52:28.955Z,101264.31
2018-09-19T16:54:56.999Z,101259.33
2018-09-19T16:57:25.068Z,101260.01
2018-09-19T16:59:53.120Z,101263.20
2018-09-19T17:02:21.185Z,101268.33
2018-09-19T17:04:49.243Z,101275.08
2018-09-19T17:07:17.320Z,101273.30
2018-09-19T17:09:45.372Z,101274.55
2018-09-19T17:12:13.416Z,101273.84
2018-09-19T17:14:41.456Z,101271.30
2018-09-19T17:17:09.588Z,101268.89
2018-09-19T17:19:37.661Z,101272.68
2018-09-19T17:22:05.720Z,101273.13
2018-09-19T17:24:33.763Z,101280.48
2018-09-19T17:27:01.824Z,101282.44
2018-09-19T17:29:29.937Z,101286.41
2018-09-19T17:31:58.032Z,101287.69
2018-09-19T17:34:26.084Z,101279.05
2018-09-19T17:36:54.132Z,101293.95
2018-09-19T17:39:22.210Z,101300.20
2018-09-19T17:41:50.291Z,101299.11
2018-09-19T17:44:18.367Z,101303.69
2018-09-19T17:46:46.432Z,101299.75
2018-09-19T17:49:14.464Z,101305.38
2018-09-19T17:51:42.607Z,101306.66
2018-09-19T17:54:10.659Z,101314.51
2018-09-19T17:56:38.723Z,101317.97
2018-09-19T17:59:06.765Z,101312.66
2018-09-19T18:01:34.816Z,101316.21
2018-09-19T18:04:03.448Z,101316.95
2018-09-19T18:06:31.503Z,101320.09
2018-09-19T18:08:59.570Z,101320.45
2018-09-19T18:11:27.653Z,101318.57
2018-09-19T18:13:55.709Z,101321.14
2018-09-19T18:16:23.751Z,101326.95
2018-09-19T18:18:51.808Z,101328.97
2018-09-19T18:21:19.871Z,101335.08
2018-09-19T18:23:47.896Z,101337.48
2018-09-19T18:26:15.930Z,101338.29
2018-09-19T18:28:44.039Z,101341.94
2018-09-19T18:31:12.103Z,101341.87
2018-09-19T18:33:40.179Z,101358.05
2018-09-19T18:36:08.264Z,101357.84
2018-09-19T18:38:36.379Z,101361.35
2018-09-19T18:41:04.389Z,101360.67
2018-09-19T18:43:32.448Z,101363.86
2018-09-19T18:46:00.484Z,101363.11
2018-09-19T18:48:28.535Z,101371.85
2018-09-19T18:50:56.585Z,101373.13
2018-09-19T18:53:24.664Z,101370.98
2018-09-19T18:55:52.691Z,101371.05
2018-09-19T18:58:20.777Z,101372.48
2018-09-19T19:00:48.840Z,101372.75
2018-09-19T19:03:16.885Z,101376.04
2018-09-19T19:05:44.967Z,101374.47
2018-09-19T19:08:13.103Z,101372.50
2018-09-19T19:10:41.233Z,101371.17
2018-09-19T19:13:09.285Z,101373.91
2018-09-19T19:15:37.354Z,101371.55
2018-09-19T19:18:05.482Z,101376.89
2018-09-19T19:20:33.569Z,101375.92
2018-09-19T19:23:01.635Z,101373.34
2018-09-19T19:25:29.756Z,101373.81
2018-09-19T19:27:57.822Z,101375.88
2018-09-19T19:30:27.255Z,101377.95
2018-09-19T19:32:55.332Z,101382.84
2018-09-19T19:35:23.416Z,101387.36
2018-09-19T19:37:51.538Z,101393.47
2018-09-19T19:40:19.559Z,101393.91
2018-09-19T19:42:47.617Z,101395.83
2018-09-19T19:45:15.672Z,101399.70
2018-09-19T19:47:43.751Z,101396.73
2018-09-19T19:50:11.805Z,101397.38
2018-09-19T19:52:39.842Z,101401.25
2018-09-19T19:55:07.899Z,101399.84
2018-09-19T19:57:35.948Z,101401.29
2018-09-19T20:00:04.021Z,101405.96
2018-09-19T20:02:32.092Z,101409.99
2018-09-19T20:05:00.168Z,101410.42
2018-09-19T20:07:28.254Z,101413.67
2018-09-19T20:09:56.312Z,101418.09
2018-09-19T20:12:24.395Z,101415.30
2018-09-19T20:14:52.483Z,101412.27
2018-09-19T20:17:20.546Z,101415.94
2018-09-19T20:19:48.616Z,101407.49
2018-09-19T20:22:16.670Z,101411.98
2018-09-19T20:24:44.720Z,101409.81
2018-09-19T20:27:12.777Z,101413.31
2018-09-19T20:29:40.908Z,101406.66
2018-09-19T20:32:08.958Z,101415.84
2018-09-19T20:34:37.016Z,101413.03
2018-09-19T20:37:05.068Z,101426.86
2018-09-19T20:39:33.124Z,101416.89
2018-09-19T20:42:01.153Z,101424.80
2018-09-19T20:44:29.217Z,101429.87
2018-09-19T20:46:57.361Z,101420.42
2018-09-19T20:49:25.402Z,101422.42
2018-09-19T20:51:53.496Z,101429.86
2018-09-19T20:54:21.612Z,101435.48
2018-09-19T20:56:49.668Z,101433.85
2018-09-19T20:59:18.037Z,101438.27
2018-09-19T21:01:46.116Z,101434.65
2018-09-19T21:04:14.315Z,101442.50
2018-09-19T21:06:42.348Z,101436.41
2018-09-19T21:09:10.419Z,101434.38
2018-09-19T21:11:38.473Z,101424.89
2018-09-19T21:14:06.572Z,101432.77
2018-09-19T21:16:34.628Z,101424.48
2018-09-19T21:19:02.699Z,101429.53
2018-09-19T21:21:30.784Z,101425.90
2018-09-19T21:23:58.811Z,101429.33
2018-09-19T21:26:26.920Z,101427.50
2018-09-19T21:28:54.981Z,101426.28
2018-09-19T21:31:23.077Z,101428.73
2018-09-19T21:33:51.128Z,101428.52
2018-09-19T21:36:19.291Z,101427.31
2018-09-19T21:38:47.455Z,101425.90
2018-09-19T21:41:15.544Z,101429.94
2018-09-19T21:43:43.589Z,101423.48
2018-09-19T21:46:11.683Z,101433.58
2018-09-19T21:48:39.767Z,101433.19
2018-09-19T21:51:07.812Z,101433.19
2018-09-19T21:53:35.883Z,101441.64
2018-09-19T21:56:04.155Z,101437.23
2018-09-19T21:58:32.196Z,101444.48
2018-09-19T22:01:05.593Z,101446.50
2018-09-19T22:03:33.699Z,101440.65
2018-09-19T22:06:01.770Z,101440.65
2018-09-19T22:08:29.818Z,101436.81
2018-09-19T22:10:58.414Z,101438.04
2018-09-19T22:13:26.474Z,101440.86
2018-09-19T22:15:54.592Z,101433.19
2018-09-19T22:18:22.986Z,101430.77
2018-09-19T22:20:51.109Z,101432.39
2018-09-19T22:23:19.177Z,101431.97
2018-09-19T22:25:47.288Z,101427.53
2018-09-19T22:28:15.417Z,101435.61
2018-09-19T22:30:43.512Z,101434.59
2018-09-19T22:33:11.571Z,101435.78
2018-09-19T22:35:39.725Z,101431.75
2018-09-19T22:38:07.777Z,101439.23
2018-09-19T22:40:35.844Z,101435.61
2018-09-19T22:43:03.934Z,101432.18
2018-09-19T22:45:32.023Z,101432.00
2018-09-19T22:48:00.076Z,101437.63
2018-09-19T22:50:28.124Z,101438.05
2018-09-19T22:52:56.219Z,101433.23
2018-09-19T22:55:24.281Z,101434.02
2018-09-19T22:57:52.339Z,101436.84
2018-09-19T23:00:20.429Z,101425.96
2018-09-19T23:02:48.484Z,101431.03
2018-09-19T23:05:16.575Z,101433.85
2018-09-19T23:07:44.649Z,101434.25
2018-09-19T23:10:12.720Z,101439.28
2018-09-19T23:12:40.780Z,101432.42
2018-09-19T23:15:08.859Z,101432.85
2018-09-19T23:17:36.919Z,101430.45
2018-09-19T23:20:06.109Z,101430.64
2018-09-19T23:22:34.220Z,101434.89
2018-09-19T23:25:02.306Z,101438.11
2018-09-19T23:27:30.384Z,101429.66
2018-09-19T23:29:58.493Z,101422.80
2018-09-19T23:32:26.571Z,101429.25
2018-09-19T23:34:54.663Z,101422.80
2018-09-19T23:37:22.740Z,101423.00
2018-09-19T23:39:50.798Z,101421.99
2018-09-19T23:42:18.867Z,101420.17
2018-09-19T23:44:46.913Z,101416.34
2018-09-19T23:47:15.024Z,101418.77
2018-09-19T23:49:43.085Z,101420.99
2018-09-19T23:52:11.156Z,101424.22
2018-09-19T23:54:39.220Z,101417.16
2018-09-19T23:57:07.276Z,101418.78
2018-09-19T23:59:35.365Z,101418.38
